createdAt,value
2018-07-06T00:03:18.006Z,2.10
2018-07-06T00:07:32.629Z,2.20
2018-07-06T00:11:47.200Z,2.00
2018-07-06T00:16:01.714Z,2.53
2018-07-06T00:20:16.265Z,2.20
2018-07-06T00:24:30.954Z,2.47
2018-07-06T00:28:45.613Z,2.67
2018-07-06T00:33:00.400Z,2.40
2018-07-06T00:37:15.077Z,2.37
2018-07-06T00:41:29.729Z,2.60
2018-07-06T00:45:44.381Z,2.30
2018-07-06T00:49:59.044Z,1.97
2018-07-06T00:54:13.756Z,2.40
2018-07-06T00:58:28.542Z,2.67
2018-07-06T01:02:43.180Z,2.30
2018-07-06T01:06:57.972Z,2.27
2018-07-06T01:11:12.548Z,2.30
2018-07-06T01:15:32.773Z,1.90
2018-07-06T01:19:41.353Z,2.50
2018-07-06T01:23:55.844Z,2.00
2018-07-06T01:28:10.585Z,2.33
2018-07-06T01:32:25.337Z,2.63
2018-07-06T01:36:39.860Z,3.23
2018-07-06T01:40:54.576Z,1.50
2018-07-06T01:45:09.201Z,2.60
2018-07-06T01:49:23.884Z,0.00
2018-07-06T01:53:38.458Z,2.50
2018-07-06T02:04:26.659Z,2.90
2018-07-06T02:08:41.413Z,3.00
2018-07-06T02:12:56.105Z,0.07
2018-07-06T02:17:10.536Z,0.00
2018-07-06T02:21:25.201Z,0.00
2018-07-06T02:25:39.854Z,0.00
2018-07-06T02:29:54.585Z,0.00
2018-07-06T02:34:09.331Z,0.00
2018-07-06T02:38:24.038Z,0.10
2018-07-06T02:42:38.693Z,0.10
2018-07-06T02:46:53.292Z,0.10
2018-07-06T02:51:08.002Z,0.00
2018-07-06T02:55:22.817Z,0.20
2018-07-06T02:59:37.516Z,0.10
2018-07-06T03:03:52.225Z,0.00
2018-07-06T03:08:06.831Z,0.00
2018-07-06T03:12:21.548Z,0.07
2018-07-06T03:16:36.181Z,0.00
2018-07-06T03:20:50.864Z,0.10
2018-07-06T03:25:05.494Z,0.00
2018-07-06T03:29:19.984Z,0.10
2018-07-06T03:33:34.674Z,0.00
2018-07-06T03:37:49.286Z,0.00
2018-07-06T03:42:03.996Z,0.00
2018-07-06T03:46:18.655Z,0.03
2018-07-06T03:50:33.368Z,0.00
2018-07-06T03:54:48.505Z,0.00
2018-07-06T03:59:03.042Z,0.00
2018-07-06T04:03:11.608Z,0.00
2018-07-06T04:07:26.079Z,0.00
2018-07-06T04:11:40.817Z,0.10
2018-07-06T04:15:49.333Z,0.00
2018-07-06T04:20:03.942Z,0.00
2018-07-06T04:24:18.584Z,0.03
2018-07-06T04:28:33.196Z,0.00
2018-07-06T04:32:47.865Z,0.10
2018-07-06T04:37:02.673Z,0.00
2018-07-06T04:41:17.404Z,0.00
2018-07-06T04:45:32.494Z,0.00
2018-07-06T04:49:47.168Z,0.00
2018-07-06T04:54:01.713Z,0.00
2018-07-06T04:58:16.124Z,0.10
2018-07-06T05:02:30.829Z,0.10
2018-07-06T05:06:45.146Z,0.00
2018-07-06T05:10:59.657Z,1.03
2018-07-06T05:15:14.429Z,0.10
2018-07-06T05:19:28.947Z,0.00
2018-07-06T05:23:43.517Z,0.00
2018-07-06T05:27:58.313Z,0.10
2018-07-06T05:32:12.842Z,0.10
2018-07-06T05:36:27.621Z,1.53
2018-07-06T05:40:42.345Z,0.00
2018-07-06T05:44:56.849Z,0.10
2018-07-06T05:49:05.453Z,2.33
2018-07-06T05:53:20.125Z,0.87
2018-07-06T05:57:34.768Z,1.10
2018-07-06T06:01:49.481Z,0.00
2018-07-06T06:06:03.993Z,0.30
2018-07-06T06:10:07.231Z,6.93
2018-07-06T06:14:10.467Z,7.07
2018-07-06T06:18:13.707Z,7.03
2018-07-06T06:22:16.965Z,8.47
2018-07-06T06:26:26.711Z,7.33
2018-07-06T06:30:29.985Z,8.60
2018-07-06T06:34:33.245Z,7.97
2018-07-06T06:38:36.210Z,7.50
2018-07-06T06:42:39.452Z,6.50
2018-07-06T06:46:42.460Z,8.13
2018-07-06T06:50:45.700Z,8.87
2018-07-06T06:54:48.945Z,9.13
2018-07-06T06:58:52.335Z,9.33
2018-07-06T07:02:55.577Z,8.20
2018-07-06T07:06:58.802Z,8.47
2018-07-06T07:11:02.041Z,9.33
2018-07-06T07:15:05.300Z,11.00
2018-07-06T07:19:08.525Z,10.07
2018-07-06T07:23:11.879Z,11.10
2018-07-06T07:27:15.121Z,9.87
2018-07-06T07:31:18.404Z,9.57
2018-07-06T07:35:21.641Z,8.23
2018-07-06T07:39:24.984Z,8.77
2018-07-06T07:43:28.236Z,9.47
2018-07-06T07:47:31.494Z,10.03
2018-07-06T07:51:56.413Z,13.63
2018-07-06T07:55:59.669Z,13.67
2018-07-06T08:00:02.904Z,11.37
2018-07-06T08:04:06.272Z,18.43
2018-07-06T08:08:09.532Z,17.57
2018-07-06T08:12:12.781Z,15.20
2018-07-06T08:16:16.013Z,19.23
2018-07-06T08:20:19.252Z,19.07
2018-07-06T08:24:22.480Z,20.23
2018-07-06T08:28:25.717Z,21.93
2018-07-06T08:32:28.929Z,22.60
2018-07-06T08:37:49.464Z,23.60
2018-07-06T08:41:52.700Z,21.93
2018-07-06T08:45:55.933Z,21.73
2018-07-06T08:49:59.900Z,23.57
2018-07-06T08:54:03.132Z,23.75
2018-07-06T08:58:06.369Z,22.15
2018-07-06T09:02:09.601Z,24.77
2018-07-06T09:06:12.816Z,23.83
2018-07-06T09:10:16.054Z,24.33
2018-07-06T09:14:19.276Z,24.43
2018-07-06T09:18:22.505Z,25.67
2018-07-06T09:22:25.813Z,26.43
2018-07-06T09:26:29.076Z,25.83
2018-07-06T09:30:32.328Z,24.00
2018-07-06T09:34:35.533Z,25.88
2018-07-06T09:38:38.789Z,26.60
2018-07-06T09:42:42.005Z,27.30
2018-07-06T09:46:45.248Z,26.77
2018-07-06T09:50:48.549Z,27.85
2018-07-06T09:54:51.729Z,28.45
2018-07-06T09:58:54.960Z,29.90
2018-07-06T10:02:58.208Z,27.73
2018-07-06T10:07:01.182Z,27.10
2018-07-06T10:11:04.752Z,27.60
2018-07-06T10:15:07.669Z,29.23
2018-07-06T10:19:10.941Z,26.00
2018-07-06T10:23:14.162Z,27.55
2018-07-06T10:27:19.543Z,27.37
2018-07-06T10:32:36.307Z,28.23
2018-07-06T10:36:39.598Z,25.48
2018-07-06T10:40:43.231Z,26.75
2018-07-06T10:44:46.589Z,25.75
2018-07-06T10:48:49.840Z,25.88
2018-07-06T10:52:53.526Z,24.95
2018-07-06T10:56:57.207Z,25.15
2018-07-06T11:01:00.985Z,24.72
2018-07-06T11:05:04.352Z,23.20
2018-07-06T11:09:08.156Z,23.00
2018-07-06T11:13:12.677Z,24.52
2018-07-06T11:17:16.608Z,23.25
2018-07-06T11:21:19.588Z,20.65
2018-07-06T11:25:22.853Z,20.23
2018-07-06T11:29:26.345Z,17.50
2018-07-06T11:33:29.997Z,19.87
2018-07-06T11:37:33.245Z,19.73
2018-07-06T11:41:40.156Z,17.12
2018-07-06T11:45:43.426Z,16.20
2018-07-06T11:49:47.030Z,17.07
2018-07-06T11:53:51.249Z,16.17
2018-07-06T11:57:54.917Z,16.82
2018-07-06T12:01:58.178Z,14.73
2018-07-06T12:06:02.565Z,15.38
2018-07-06T12:10:05.600Z,14.53
2018-07-06T12:14:09.515Z,14.28
2018-07-06T12:18:13.178Z,12.47
2018-07-06T12:22:16.180Z,11.90
2018-07-06T12:26:19.425Z,13.20
2018-07-06T12:30:22.668Z,11.50
2018-07-06T12:34:25.921Z,12.30
2018-07-06T12:38:29.169Z,10.72
2018-07-06T12:42:32.417Z,10.65
2018-07-06T12:46:35.416Z,10.85
2018-07-06T12:50:38.396Z,10.45
2018-07-06T12:54:41.644Z,10.03
2018-07-06T12:58:45.049Z,9.00
2018-07-06T13:02:48.916Z,8.53
2018-07-06T13:06:52.194Z,7.97
2018-07-06T13:10:55.419Z,7.90
2018-07-06T13:14:58.641Z,8.15
2018-07-06T13:19:01.897Z,8.13
2018-07-06T13:23:05.182Z,7.17
2018-07-06T13:27:08.423Z,7.42
2018-07-06T13:31:11.676Z,7.37
2018-07-06T13:35:14.706Z,7.40
2018-07-06T13:39:17.983Z,6.60
2018-07-06T13:43:21.165Z,6.03
2018-07-06T13:47:24.408Z,5.47
2018-07-06T13:51:27.621Z,5.67
2018-07-06T13:55:30.856Z,5.42
2018-07-06T13:59:34.097Z,6.70
2018-07-06T14:03:37.333Z,6.55
2018-07-06T14:07:40.549Z,6.28
2018-07-06T14:11:43.890Z,5.40
2018-07-06T14:15:47.132Z,5.40
2018-07-06T14:19:50.093Z,6.20
2018-07-06T14:23:53.334Z,6.50
2018-07-06T14:27:56.614Z,6.00
2018-07-06T14:31:59.784Z,6.17
2018-07-06T14:36:03.398Z,4.72
2018-07-06T14:40:06.647Z,5.28
2018-07-06T14:44:09.615Z,5.30
2018-07-06T14:48:12.833Z,4.92
2018-07-06T14:52:16.065Z,5.17
2018-07-06T14:56:19.311Z,5.12
2018-07-06T15:00:22.556Z,7.08
2018-07-06T15:04:25.824Z,6.75
2018-07-06T15:08:29.057Z,7.70
2018-07-06T15:12:32.276Z,5.45
2018-07-06T15:16:35.490Z,5.37
2018-07-06T15:20:38.709Z,4.97
2018-07-06T15:24:41.987Z,4.70
2018-07-06T15:28:45.216Z,4.65
2018-07-06T15:32:48.445Z,5.05
2018-07-06T15:36:51.668Z,4.70
2018-07-06T15:40:54.665Z,5.10
2018-07-06T15:44:57.873Z,4.50
2018-07-06T15:49:02.861Z,5.30
2018-07-06T15:53:06.852Z,4.67
2018-07-06T15:57:10.140Z,5.00
2018-07-06T16:01:15.035Z,4.97
2018-07-06T16:05:18.929Z,4.85
2018-07-06T16:09:22.562Z,5.53
2018-07-06T16:13:26.121Z,4.95
2018-07-06T16:17:29.649Z,5.55
2018-07-06T16:21:32.632Z,5.58
2018-07-06T16:25:36.088Z,5.00
2018-07-06T16:29:39.594Z,4.70
2018-07-06T16:33:42.854Z,4.80
2018-07-06T16:37:46.111Z,5.67
2018-07-06T16:41:49.127Z,4.65
2018-07-06T16:45:52.367Z,4.80
2018-07-06T16:49:56.085Z,4.92
2018-07-06T16:53:59.477Z,4.55
2018-07-06T16:58:02.706Z,4.50
2018-07-06T17:02:06.229Z,4.08
2018-07-06T17:06:09.460Z,3.62
2018-07-06T17:10:12.696Z,3.70
2018-07-06T17:14:15.978Z,3.83
2018-07-06T17:18:19.201Z,3.72
2018-07-06T17:22:22.448Z,3.75
2018-07-06T17:26:25.689Z,3.92
2018-07-06T17:30:28.911Z,3.67
2018-07-06T17:34:32.353Z,3.60
2018-07-06T17:38:35.632Z,3.95
2018-07-06T17:42:38.850Z,3.62
2018-07-06T17:46:42.073Z,3.60
2018-07-06T17:50:45.288Z,3.10
2018-07-06T17:54:48.529Z,3.50
2018-07-06T17:58:51.766Z,3.37
2018-07-06T18:02:55.014Z,3.27
2018-07-06T18:06:58.261Z,3.12
2018-07-06T18:11:01.483Z,3.55
2018-07-06T18:15:04.849Z,3.47
2018-07-06T18:19:08.089Z,3.20
2018-07-06T18:23:11.439Z,3.02
2018-07-06T18:27:14.588Z,3.33
2018-07-06T18:31:17.814Z,3.40
2018-07-06T18:35:21.055Z,3.30
2018-07-06T18:39:24.284Z,3.50
2018-07-06T18:43:27.504Z,3.83
2018-07-06T18:47:30.791Z,3.42
2018-07-06T18:51:33.956Z,3.50
2018-07-06T18:55:36.923Z,3.30
2018-07-06T18:59:39.922Z,3.75
2018-07-06T19:03:43.141Z,3.45
2018-07-06T19:07:46.365Z,3.25
2018-07-06T19:11:49.311Z,3.50
2018-07-06T19:15:52.564Z,3.40
2018-07-06T19:19:55.987Z,3.62
2018-07-06T19:23:58.944Z,3.92
2018-07-06T19:28:02.265Z,3.40
2018-07-06T19:32:05.594Z,3.33
2018-07-06T19:36:08.571Z,3.30
2018-07-06T19:40:11.809Z,3.50
2018-07-06T19:44:16.117Z,3.70
2018-07-06T19:48:19.093Z,3.90
2018-07-06T19:52:23.233Z,3.47
2018-07-06T19:56:26.837Z,3.30
2018-07-06T20:00:31.376Z,3.40
2018-07-06T20:04:36.664Z,3.95
2018-07-06T20:08:40.116Z,3.45
2018-07-06T20:12:43.624Z,4.17
2018-07-06T20:16:46.952Z,3.85
2018-07-06T20:20:52.702Z,3.52
2018-07-06T20:24:56.270Z,3.85
2018-07-06T20:28:59.919Z,3.90
2018-07-06T20:33:03.150Z,4.75
2018-07-06T20:37:06.715Z,4.35
2018-07-06T20:41:10.196Z,3.95
2018-07-06T20:45:13.829Z,4.35
2018-07-06T20:49:17.257Z,4.08
2018-07-06T20:53:20.890Z,4.47
2018-07-06T20:57:24.133Z,4.12
2018-07-06T21:01:27.816Z,4.05
2018-07-06T21:05:31.062Z,4.17
2018-07-06T21:09:35.181Z,4.47
2018-07-06T21:13:38.725Z,4.50
2018-07-06T21:17:42.814Z,4.70
2018-07-06T21:21:46.231Z,4.47
2018-07-06T21:25:50.198Z,4.80
2018-07-06T21:29:53.793Z,5.12
2018-07-06T21:33:57.237Z,4.40
2018-07-06T21:38:01.392Z,4.73
2018-07-06T21:42:04.668Z,4.40
2018-07-06T21:46:07.984Z,4.73
2018-07-06T21:50:11.324Z,5.17
2018-07-06T21:54:14.893Z,4.90
2018-07-06T21:58:18.121Z,5.27
2018-07-06T22:02:21.514Z,5.00
2018-07-06T22:06:25.082Z,4.77
2018-07-06T22:10:29.379Z,5.03
2018-07-06T22:14:32.657Z,4.87
2018-07-06T22:18:35.837Z,5.20
2018-07-06T22:22:39.131Z,5.07
2018-07-06T22:26:42.300Z,5.47
2018-07-06T22:30:45.521Z,5.23
2018-07-06T22:34:48.754Z,5.50
2018-07-06T22:38:51.977Z,5.57
2018-07-06T22:42:55.189Z,5.43
2018-07-06T22:46:58.147Z,6.07
2018-07-06T22:51:01.368Z,5.67
2018-07-06T22:55:04.620Z,5.93
2018-07-06T22:59:07.836Z,6.17
2018-07-06T23:03:11.044Z,5.63
2018-07-06T23:07:14.268Z,6.10
2018-07-06T23:11:17.484Z,5.60
2018-07-06T23:15:20.717Z,6.10
2018-07-06T23:19:23.934Z,6.47
2018-07-06T23:23:27.178Z,5.63
2018-07-06T23:27:30.393Z,6.60
2018-07-06T23:31:33.629Z,6.13
2018-07-06T23:35:36.932Z,6.53
2018-07-06T23:39:40.156Z,5.60
2018-07-06T23:43:43.376Z,6.17
2018-07-06T23:47:46.659Z,6.53
2018-07-06T23:51:49.930Z,5.70
2018-07-06T23:55:53.173Z,5.83
2018-07-06T23:59:56.140Z,6.30
